sensor_id;sensor_type;location;lat;lon;timestamp;P1;durP1;ratioP1;P2;durP2;ratioP2
40863;SDS011;26582;47.524;19.012;2023-09-30T00:00:02;14.85;;;7.45;;
40863;SDS011;26582;47.524;19.012;2023-09-30T00:02:36;12.10;;;8.23;;
40863;SDS011;26582;47.524;19.012;2023-09-30T00:05:03;14.05;;;8.00;;
40863;SDS011;26582;47.524;19.012;2023-09-30T00:07:30;14.82;;;8.07;;
40863;SDS011;26582;47.524;19.012;2023-09-30T00:09:58;13.95;;;8.38;;
40863;SDS011;26582;47.524;19.012;2023-09-30T00:12:25;16.30;;;8.77;;
40863;SDS011;26582;47.524;19.012;2023-09-30T00:14:52;14.20;;;8.52;;
40863;SDS011;26582;47.524;19.012;2023-09-30T00:17:19;15.90;;;9.15;;
40863;SDS011;26582;47.524;19.012;2023-09-30T00:19:46;14.73;;;8.32;;
40863;SDS011;26582;47.524;19.012;2023-09-30T00:22:13;12.55;;;8.18;;
40863;SDS011;26582;47.524;19.012;2023-09-30T00:24:40;13.75;;;8.32;;
40863;SDS011;26582;47.524;19.012;2023-09-30T00:27:08;14.98;;;8.70;;
40863;SDS011;26582;47.524;19.012;2023-09-30T00:29:35;12.85;;;8.40;;
40863;SDS011;26582;47.524;19.012;2023-09-30T00:32:02;13.75;;;8.50;;
40863;SDS011;26582;47.524;19.012;2023-09-30T00:34:31;13.90;;;8.40;;
40863;SDS011;26582;47.524;19.012;2023-09-30T00:39:25;16.08;;;8.45;;
40863;SDS011;26582;47.524;19.012;2023-09-30T00:41:55;11.02;;;7.68;;
40863;SDS011;26582;47.524;19.012;2023-09-30T00:44:25;16.52;;;9.75;;
40863;SDS011;26582;47.524;19.012;2023-09-30T00:46:51;11.00;;;8.07;;
40863;SDS011;26582;47.524;19.012;2023-09-30T00:49:20;11.10;;;8.00;;
40863;SDS011;26582;47.524;19.012;2023-09-30T00:51:48;12.63;;;8.07;;
40863;SDS011;26582;47.524;19.012;2023-09-30T00:54:17;10.73;;;7.22;;
40863;SDS011;26582;47.524;19.012;2023-09-30T00:56:44;13.20;;;7.68;;
40863;SDS011;26582;47.524;19.012;2023-09-30T00:59:12;10.77;;;7.60;;
40863;SDS011;26582;47.524;19.012;2023-09-30T01:01:42;12.60;;;7.30;;
40863;SDS011;26582;47.524;19.012;2023-09-30T01:06:37;10.70;;;6.80;;
40863;SDS011;26582;47.524;19.012;2023-09-30T01:09:04;13.68;;;7.40;;
40863;SDS011;26582;47.524;19.012;2023-09-30T01:11:31;10.10;;;7.70;;
40863;SDS011;26582;47.524;19.012;2023-09-30T01:13:57;13.27;;;8.50;;
40863;SDS011;26582;47.524;19.012;2023-09-30T01:16:24;10.25;;;7.03;;
40863;SDS011;26582;47.524;19.012;2023-09-30T01:18:52;10.38;;;7.45;;
40863;SDS011;26582;47.524;19.012;2023-09-30T01:21:20;10.85;;;7.32;;
40863;SDS011;26582;47.524;19.012;2023-09-30T01:23:48;11.57;;;7.25;;
40863;SDS011;26582;47.524;19.012;2023-09-30T01:26:15;12.45;;;7.40;;
40863;SDS011;26582;47.524;19.012;2023-09-30T01:28:42;10.50;;;7.03;;
40863;SDS011;26582;47.524;19.012;2023-09-30T01:31:09;11.73;;;7.38;;
40863;SDS011;26582;47.524;19.012;2023-09-30T01:33:35;11.57;;;7.78;;
40863;SDS011;26582;47.524;19.012;2023-09-30T01:36:02;9.88;;;7.40;;
40863;SDS011;26582;47.524;19.012;2023-09-30T01:38:29;11.25;;;7.22;;
40863;SDS011;26582;47.524;19.012;2023-09-30T01:40:57;13.45;;;7.00;;
40863;SDS011;26582;47.524;19.012;2023-09-30T01:43:24;10.38;;;7.57;;
40863;SDS011;26582;47.524;19.012;2023-09-30T01:45:51;11.80;;;7.45;;
40863;SDS011;26582;47.524;19.012;2023-09-30T01:48:18;11.80;;;7.55;;
40863;SDS011;26582;47.524;19.012;2023-09-30T01:50:45;11.77;;;6.88;;
40863;SDS011;26582;47.524;19.012;2023-09-30T01:53:13;13.45;;;7.10;;
40863;SDS011;26582;47.524;19.012;2023-09-30T01:55:39;12.00;;;7.55;;
40863;SDS011;26582;47.524;19.012;2023-09-30T01:58:08;11.80;;;7.68;;
40863;SDS011;26582;47.524;19.012;2023-09-30T02:00:36;12.23;;;7.85;;
40863;SDS011;26582;47.524;19.012;2023-09-30T02:03:03;13.73;;;7.97;;
40863;SDS011;26582;47.524;19.012;2023-09-30T02:05:30;12.70;;;7.30;;
40863;SDS011;26582;47.524;19.012;2023-09-30T02:07:57;11.93;;;7.30;;
40863;SDS011;26582;47.524;19.012;2023-09-30T02:10:23;13.13;;;7.25;;
40863;SDS011;26582;47.524;19.012;2023-09-30T02:12:50;10.00;;;7.60;;
40863;SDS011;26582;47.524;19.012;2023-09-30T02:15:18;11.70;;;6.82;;
40863;SDS011;26582;47.524;19.012;2023-09-30T02:17:45;12.43;;;7.30;;
40863;SDS011;26582;47.524;19.012;2023-09-30T02:20:14;11.95;;;7.43;;
40863;SDS011;26582;47.524;19.012;2023-09-30T02:22:44;12.15;;;7.43;;
40863;SDS011;26582;47.524;19.012;2023-09-30T02:25:11;13.70;;;7.40;;
40863;SDS011;26582;47.524;19.012;2023-09-30T02:27:39;11.05;;;6.82;;
40863;SDS011;26582;47.524;19.012;2023-09-30T02:30:07;12.43;;;7.30;;
40863;SDS011;26582;47.524;19.012;2023-09-30T02:32:36;10.82;;;7.15;;
40863;SDS011;26582;47.524;19.012;2023-09-30T02:35:04;12.15;;;7.07;;
40863;SDS011;26582;47.524;19.012;2023-09-30T02:37:31;13.77;;;7.25;;
40863;SDS011;26582;47.524;19.012;2023-09-30T02:40:01;9.45;;;6.32;;
40863;SDS011;26582;47.524;19.012;2023-09-30T02:42:30;11.23;;;6.07;;
40863;SDS011;26582;47.524;19.012;2023-09-30T02:44:58;11.73;;;7.22;;
40863;SDS011;26582;47.524;19.012;2023-09-30T02:47:25;11.27;;;7.05;;
40863;SDS011;26582;47.524;19.012;2023-09-30T02:49:54;11.60;;;7.32;;
40863;SDS011;26582;47.524;19.012;2023-09-30T02:52:22;12.05;;;6.85;;
40863;SDS011;26582;47.524;19.012;2023-09-30T02:54:49;11.30;;;6.68;;
40863;SDS011;26582;47.524;19.012;2023-09-30T02:57:17;11.25;;;7.03;;
40863;SDS011;26582;47.524;19.012;2023-09-30T02:59:44;10.10;;;6.93;;
40863;SDS011;26582;47.524;19.012;2023-09-30T03:02:11;11.02;;;7.35;;
40863;SDS011;26582;47.524;19.012;2023-09-30T03:04:38;12.50;;;7.45;;
40863;SDS011;26582;47.524;19.012;2023-09-30T03:07:06;13.63;;;7.50;;
40863;SDS011;26582;47.524;19.012;2023-09-30T03:09:33;10.88;;;7.60;;
40863;SDS011;26582;47.524;19.012;2023-09-30T03:12:01;11.77;;;7.35;;
40863;SDS011;26582;47.524;19.012;2023-09-30T03:14:29;14.18;;;7.88;;
40863;SDS011;26582;47.524;19.012;2023-09-30T03:16:57;14.20;;;7.15;;
40863;SDS011;26582;47.524;19.012;2023-09-30T03:19:24;12.35;;;7.35;;
40863;SDS011;26582;47.524;19.012;2023-09-30T03:21:50;13.65;;;7.68;;
40863;SDS011;26582;47.524;19.012;2023-09-30T03:24:19;12.75;;;7.13;;
40863;SDS011;26582;47.524;19.012;2023-09-30T03:26:46;11.32;;;6.75;;
40863;SDS011;26582;47.524;19.012;2023-09-30T03:29:13;9.40;;;6.53;;
40863;SDS011;26582;47.524;19.012;2023-09-30T03:31:39;12.38;;;7.25;;
40863;SDS011;26582;47.524;19.012;2023-09-30T03:34:06;10.35;;;6.90;;
40863;SDS011;26582;47.524;19.012;2023-09-30T03:36:33;12.43;;;6.90;;
40863;SDS011;26582;47.524;19.012;2023-09-30T03:39:00;9.75;;;7.45;;
40863;SDS011;26582;47.524;19.012;2023-09-30T03:41:32;11.38;;;7.32;;
40863;SDS011;26582;47.524;19.012;2023-09-30T03:46:27;10.43;;;6.97;;
40863;SDS011;26582;47.524;19.012;2023-09-30T03:48:53;10.95;;;7.18;;
40863;SDS011;26582;47.524;19.012;2023-09-30T03:51:20;12.40;;;6.80;;
40863;SDS011;26582;47.524;19.012;2023-09-30T03:56:17;9.95;;;6.20;;
40863;SDS011;26582;47.524;19.012;2023-09-30T03:58:46;11.10;;;6.97;;
40863;SDS011;26582;47.524;19.012;2023-09-30T04:01:13;12.45;;;6.65;;
40863;SDS011;26582;47.524;19.012;2023-09-30T04:03:40;9.57;;;6.43;;
40863;SDS011;26582;47.524;19.012;2023-09-30T04:06:08;10.85;;;7.05;;
40863;SDS011;26582;47.524;19.012;2023-09-30T04:08:35;10.95;;;7.13;;
40863;SDS011;26582;47.524;19.012;2023-09-30T04:11:02;12.55;;;7.25;;
40863;SDS011;26582;47.524;19.012;2023-09-30T04:13:29;11.27;;;7.00;;
40863;SDS011;26582;47.524;19.012;2023-09-30T04:15:57;9.75;;;6.50;;
40863;SDS011;26582;47.524;19.012;2023-09-30T04:18:24;14.90;;;7.28;;
40863;SDS011;26582;47.524;19.012;2023-09-30T04:20:52;12.20;;;7.32;;
40863;SDS011;26582;47.524;19.012;2023-09-30T04:23:19;10.43;;;6.63;;
40863;SDS011;26582;47.524;19.012;2023-09-30T04:25:47;10.02;;;6.95;;
40863;SDS011;26582;47.524;19.012;2023-09-30T04:28:14;12.63;;;7.30;;
40863;SDS011;26582;47.524;19.012;2023-09-30T04:30:46;10.75;;;7.55;;
40863;SDS011;26582;47.524;19.012;2023-09-30T04:33:15;8.95;;;6.38;;
40863;SDS011;26582;47.524;19.012;2023-09-30T04:35:43;11.38;;;6.88;;
40863;SDS011;26582;47.524;19.012;2023-09-30T04:38:10;10.25;;;6.78;;
40863;SDS011;26582;47.524;19.012;2023-09-30T04:40:38;10.80;;;6.97;;
40863;SDS011;26582;47.524;19.012;2023-09-30T04:43:05;14.05;;;7.03;;
40863;SDS011;26582;47.524;19.012;2023-09-30T04:45:31;12.75;;;7.10;;
40863;SDS011;26582;47.524;19.012;2023-09-30T04:47:58;9.35;;;7.00;;
40863;SDS011;26582;47.524;19.012;2023-09-30T04:50:28;11.27;;;7.55;;
40863;SDS011;26582;47.524;19.012;2023-09-30T04:52:55;9.90;;;7.00;;
40863;SDS011;26582;47.524;19.012;2023-09-30T04:55:23;12.07;;;7.65;;
40863;SDS011;26582;47.524;19.012;2023-09-30T04:57:50;13.63;;;7.32;;
40863;SDS011;26582;47.524;19.012;2023-09-30T05:00:17;12.40;;;7.20;;
40863;SDS011;26582;47.524;19.012;2023-09-30T05:02:50;10.27;;;7.50;;
40863;SDS011;26582;47.524;19.012;2023-09-30T05:05:17;10.13;;;6.65;;
40863;SDS011;26582;47.524;19.012;2023-09-30T05:07:45;11.30;;;6.88;;
40863;SDS011;26582;47.524;19.012;2023-09-30T05:10:13;13.23;;;7.50;;
40863;SDS011;26582;47.524;19.012;2023-09-30T05:12:41;11.35;;;7.00;;
40863;SDS011;26582;47.524;19.012;2023-09-30T05:15:11;9.43;;;6.45;;
40863;SDS011;26582;47.524;19.012;2023-09-30T05:17:39;11.23;;;6.90;;
40863;SDS011;26582;47.524;19.012;2023-09-30T05:20:06;13.52;;;7.60;;
40863;SDS011;26582;47.524;19.012;2023-09-30T05:22:33;11.27;;;7.97;;
40863;SDS011;26582;47.524;19.012;2023-09-30T05:25:01;10.63;;;7.10;;
40863;SDS011;26582;47.524;19.012;2023-09-30T05:27:28;13.87;;;7.67;;
40863;SDS011;26582;47.524;19.012;2023-09-30T05:29:55;14.82;;;7.75;;
40863;SDS011;26582;47.524;19.012;2023-09-30T05:32:22;12.13;;;8.00;;
40863;SDS011;26582;47.524;19.012;2023-09-30T05:34:48;11.20;;;7.90;;
40863;SDS011;26582;47.524;19.012;2023-09-30T05:37:15;12.73;;;7.28;;
40863;SDS011;26582;47.524;19.012;2023-09-30T05:39:42;11.43;;;7.93;;
40863;SDS011;26582;47.524;19.012;2023-09-30T05:42:12;17.13;;;8.50;;
40863;SDS011;26582;47.524;19.012;2023-09-30T05:44:39;13.53;;;8.37;;
40863;SDS011;26582;47.524;19.012;2023-09-30T05:47:06;12.95;;;8.02;;
40863;SDS011;26582;47.524;19.012;2023-09-30T05:49:33;13.07;;;8.68;;
40863;SDS011;26582;47.524;19.012;2023-09-30T05:52:01;14.02;;;8.00;;
40863;SDS011;26582;47.524;19.012;2023-09-30T05:54:28;13.35;;;8.07;;
40863;SDS011;26582;47.524;19.012;2023-09-30T05:56:55;13.57;;;8.30;;
40863;SDS011;26582;47.524;19.012;2023-09-30T05:59:23;13.02;;;9.02;;
40863;SDS011;26582;47.524;19.012;2023-09-30T06:01:50;13.80;;;8.17;;
40863;SDS011;26582;47.524;19.012;2023-09-30T06:04:17;12.27;;;8.23;;
40863;SDS011;26582;47.524;19.012;2023-09-30T06:06:44;14.25;;;8.68;;
40863;SDS011;26582;47.524;19.012;2023-09-30T06:09:11;14.00;;;8.52;;
40863;SDS011;26582;47.524;19.012;2023-09-30T06:11:38;15.85;;;8.75;;
40863;SDS011;26582;47.524;19.012;2023-09-30T06:14:07;14.35;;;9.13;;
40863;SDS011;26582;47.524;19.012;2023-09-30T06:16:35;13.98;;;8.05;;
40863;SDS011;26582;47.524;19.012;2023-09-30T06:19:01;11.80;;;8.30;;
40863;SDS011;26582;47.524;19.012;2023-09-30T06:21:29;11.77;;;8.50;;
40863;SDS011;26582;47.524;19.012;2023-09-30T06:23:56;13.23;;;8.63;;
40863;SDS011;26582;47.524;19.012;2023-09-30T06:26:23;12.90;;;8.23;;
40863;SDS011;26582;47.524;19.012;2023-09-30T06:28:56;11.65;;;7.93;;
40863;SDS011;26582;47.524;19.012;2023-09-30T06:31:23;13.45;;;8.77;;
40863;SDS011;26582;47.524;19.012;2023-09-30T06:33:53;14.07;;;8.93;;
40863;SDS011;26582;47.524;19.012;2023-09-30T06:36:23;13.88;;;8.45;;
40863;SDS011;26582;47.524;19.012;2023-09-30T06:38:50;21.45;;;10.30;;
40863;SDS011;26582;47.524;19.012;2023-09-30T06:41:17;27.42;;;15.18;;
40863;SDS011;26582;47.524;19.012;2023-09-30T06:43:44;14.32;;;8.32;;
40863;SDS011;26582;47.524;19.012;2023-09-30T06:46:12;14.07;;;8.40;;
40863;SDS011;26582;47.524;19.012;2023-09-30T06:48:39;13.15;;;7.50;;
40863;SDS011;26582;47.524;19.012;2023-09-30T06:51:12;12.57;;;7.88;;
40863;SDS011;26582;47.524;19.012;2023-09-30T06:53:40;17.63;;;7.82;;
40863;SDS011;26582;47.524;19.012;2023-09-30T06:56:06;15.90;;;9.13;;
40863;SDS011;26582;47.524;19.012;2023-09-30T06:58:33;17.02;;;9.68;;
40863;SDS011;26582;47.524;19.012;2023-09-30T07:01:00;13.30;;;8.68;;
40863;SDS011;26582;47.524;19.012;2023-09-30T07:03:27;24.52;;;9.65;;
40863;SDS011;26582;47.524;19.012;2023-09-30T07:05:54;13.07;;;8.20;;
40863;SDS011;26582;47.524;19.012;2023-09-30T07:08:26;14.23;;;8.25;;
40863;SDS011;26582;47.524;19.012;2023-09-30T07:10:55;12.48;;;8.10;;
40863;SDS011;26582;47.524;19.012;2023-09-30T07:13:21;15.52;;;8.27;;
40863;SDS011;26582;47.524;19.012;2023-09-30T07:15:48;10.25;;;7.30;;
40863;SDS011;26582;47.524;19.012;2023-09-30T07:18:16;13.88;;;8.55;;
40863;SDS011;26582;47.524;19.012;2023-09-30T07:20:42;12.75;;;8.77;;
40863;SDS011;26582;47.524;19.012;2023-09-30T07:23:09;14.40;;;8.57;;
40863;SDS011;26582;47.524;19.012;2023-09-30T07:25:39;22.35;;;13.65;;
40863;SDS011;26582;47.524;19.012;2023-09-30T07:28:06;36.72;;;20.63;;
40863;SDS011;26582;47.524;19.012;2023-09-30T07:30:36;23.58;;;14.43;;
40863;SDS011;26582;47.524;19.012;2023-09-30T07:33:03;26.40;;;10.02;;
40863;SDS011;26582;47.524;19.012;2023-09-30T07:35:31;25.05;;;11.32;;
40863;SDS011;26582;47.524;19.012;2023-09-30T07:37:58;16.75;;;8.80;;
40863;SDS011;26582;47.524;19.012;2023-09-30T07:40:24;19.63;;;9.40;;
40863;SDS011;26582;47.524;19.012;2023-09-30T07:42:54;20.10;;;9.55;;
40863;SDS011;26582;47.524;19.012;2023-09-30T07:45:21;16.13;;;9.10;;
40863;SDS011;26582;47.524;19.012;2023-09-30T07:47:48;13.98;;;8.60;;
40863;SDS011;26582;47.524;19.012;2023-09-30T07:50:16;15.57;;;8.73;;
40863;SDS011;26582;47.524;19.012;2023-09-30T07:52:43;14.02;;;8.15;;
40863;SDS011;26582;47.524;19.012;2023-09-30T07:55:10;17.25;;;8.45;;
40863;SDS011;26582;47.524;19.012;2023-09-30T07:57:36;13.57;;;8.60;;
40863;SDS011;26582;47.524;19.012;2023-09-30T08:00:10;14.80;;;8.38;;
40863;SDS011;26582;47.524;19.012;2023-09-30T08:02:40;13.45;;;7.88;;
40863;SDS011;26582;47.524;19.012;2023-09-30T08:05:08;16.33;;;9.85;;
40863;SDS011;26582;47.524;19.012;2023-09-30T08:07:35;10.90;;;7.85;;
40863;SDS011;26582;47.524;19.012;2023-09-30T08:10:02;12.98;;;7.15;;
40863;SDS011;26582;47.524;19.012;2023-09-30T08:12:31;11.20;;;7.20;;
40863;SDS011;26582;47.524;19.012;2023-09-30T08:14:58;12.10;;;6.80;;
40863;SDS011;26582;47.524;19.012;2023-09-30T08:17:26;13.13;;;7.35;;
40863;SDS011;26582;47.524;19.012;2023-09-30T08:19:53;13.00;;;7.10;;
40863;SDS011;26582;47.524;19.012;2023-09-30T08:22:20;9.70;;;7.00;;
40863;SDS011;26582;47.524;19.012;2023-09-30T08:24:50;12.80;;;7.55;;
40863;SDS011;26582;47.524;19.012;2023-09-30T08:27:17;10.95;;;6.55;;
40863;SDS011;26582;47.524;19.012;2023-09-30T08:29:44;9.35;;;6.43;;
40863;SDS011;26582;47.524;19.012;2023-09-30T08:32:11;10.65;;;6.95;;
40863;SDS011;26582;47.524;19.012;2023-09-30T08:34:39;11.23;;;7.40;;
40863;SDS011;26582;47.524;19.012;2023-09-30T08:39:37;14.52;;;6.97;;
40863;SDS011;26582;47.524;19.012;2023-09-30T08:42:04;11.23;;;7.07;;
40863;SDS011;26582;47.524;19.012;2023-09-30T08:44:35;9.65;;;6.78;;
40863;SDS011;26582;47.524;19.012;2023-09-30T08:47:04;9.95;;;6.80;;
40863;SDS011;26582;47.524;19.012;2023-09-30T08:49:32;9.48;;;7.10;;
40863;SDS011;26582;47.524;19.012;2023-09-30T08:52:05;11.15;;;7.40;;
40863;SDS011;26582;47.524;19.012;2023-09-30T08:54:32;11.65;;;7.88;;
40863;SDS011;26582;47.524;19.012;2023-09-30T08:56:59;11.25;;;7.50;;
40863;SDS011;26582;47.524;19.012;2023-09-30T08:59:28;11.38;;;6.82;;
40863;SDS011;26582;47.524;19.012;2023-09-30T09:01:55;11.90;;;7.75;;
40863;SDS011;26582;47.524;19.012;2023-09-30T09:04:23;9.65;;;6.97;;
40863;SDS011;26582;47.524;19.012;2023-09-30T09:06:50;11.60;;;7.13;;
40863;SDS011;26582;47.524;19.012;2023-09-30T09:11:47;10.73;;;6.93;;
40863;SDS011;26582;47.524;19.012;2023-09-30T09:14:14;11.70;;;7.40;;
40863;SDS011;26582;47.524;19.012;2023-09-30T09:16:50;11.48;;;6.82;;
40863;SDS011;26582;47.524;19.012;2023-09-30T09:19:17;11.80;;;7.70;;
40863;SDS011;26582;47.524;19.012;2023-09-30T09:21:54;15.80;;;7.50;;
40863;SDS011;26582;47.524;19.012;2023-09-30T09:24:30;8.88;;;7.10;;
40863;SDS011;26582;47.524;19.012;2023-09-30T09:27:04;9.30;;;6.72;;
40863;SDS011;26582;47.524;19.012;2023-09-30T09:29:32;10.25;;;7.15;;
40863;SDS011;26582;47.524;19.012;2023-09-30T09:32:08;11.02;;;6.93;;
40863;SDS011;26582;47.524;19.012;2023-09-30T09:34:37;10.20;;;6.93;;
40863;SDS011;26582;47.524;19.012;2023-09-30T09:37:14;12.32;;;7.50;;
40863;SDS011;26582;47.524;19.012;2023-09-30T09:39:50;14.18;;;7.53;;
40863;SDS011;26582;47.524;19.012;2023-09-30T09:42:24;10.68;;;7.60;;
40863;SDS011;26582;47.524;19.012;2023-09-30T09:44:54;10.77;;;7.75;;
40863;SDS011;26582;47.524;19.012;2023-09-30T09:47:22;11.95;;;7.22;;
40863;SDS011;26582;47.524;19.012;2023-09-30T09:49:50;11.75;;;7.72;;
40863;SDS011;26582;47.524;19.012;2023-09-30T09:52:18;10.70;;;7.35;;
40863;SDS011;26582;47.524;19.012;2023-09-30T09:54:46;9.52;;;6.80;;
40863;SDS011;26582;47.524;19.012;2023-09-30T09:57:14;10.70;;;7.57;;
40863;SDS011;26582;47.524;19.012;2023-09-30T09:59:43;12.13;;;7.68;;
40863;SDS011;26582;47.524;19.012;2023-09-30T10:04:39;12.82;;;7.43;;
40863;SDS011;26582;47.524;19.012;2023-09-30T10:07:07;14.43;;;7.90;;
40863;SDS011;26582;47.524;19.012;2023-09-30T10:09:38;11.57;;;7.63;;
40863;SDS011;26582;47.524;19.012;2023-09-30T10:12:07;12.95;;;7.97;;
40863;SDS011;26582;47.524;19.012;2023-09-30T10:14:36;11.98;;;7.65;;
40863;SDS011;26582;47.524;19.012;2023-09-30T10:17:03;11.43;;;7.23;;
40863;SDS011;26582;47.524;19.012;2023-09-30T10:19:30;10.73;;;7.38;;
40863;SDS011;26582;47.524;19.012;2023-09-30T10:24:50;13.70;;;8.43;;
40863;SDS011;26582;47.524;19.012;2023-09-30T10:27:28;14.90;;;8.23;;
40863;SDS011;26582;47.524;19.012;2023-09-30T10:30:10;12.95;;;8.70;;
40863;SDS011;26582;47.524;19.012;2023-09-30T10:35:42;13.48;;;7.82;;
40863;SDS011;26582;47.524;19.012;2023-09-30T10:41:08;10.40;;;7.63;;
40863;SDS011;26582;47.524;19.012;2023-09-30T10:43:37;11.32;;;7.40;;
40863;SDS011;26582;47.524;19.012;2023-09-30T10:49:14;11.88;;;8.40;;
40863;SDS011;26582;47.524;19.012;2023-09-30T10:51:43;12.75;;;8.27;;
40863;SDS011;26582;47.524;19.012;2023-09-30T10:54:10;13.70;;;8.75;;
40863;SDS011;26582;47.524;19.012;2023-09-30T10:56:39;13.43;;;8.43;;
40863;SDS011;26582;47.524;19.012;2023-09-30T10:59:06;12.90;;;8.65;;
40863;SDS011;26582;47.524;19.012;2023-09-30T11:01:35;11.98;;;8.45;;
40863;SDS011;26582;47.524;19.012;2023-09-30T11:04:03;12.37;;;8.93;;
40863;SDS011;26582;47.524;19.012;2023-09-30T11:08:59;11.80;;;8.60;;
40863;SDS011;26582;47.524;19.012;2023-09-30T11:11:34;12.70;;;9.20;;
40863;SDS011;26582;47.524;19.012;2023-09-30T11:14:02;16.13;;;8.77;;
40863;SDS011;26582;47.524;19.012;2023-09-30T11:16:41;14.23;;;8.68;;
40863;SDS011;26582;47.524;19.012;2023-09-30T11:19:08;16.67;;;9.82;;
40863;SDS011;26582;47.524;19.012;2023-09-30T11:21:35;12.55;;;8.48;;
40863;SDS011;26582;47.524;19.012;2023-09-30T11:24:02;16.02;;;9.45;;
40863;SDS011;26582;47.524;19.012;2023-09-30T11:26:30;17.17;;;9.32;;
40863;SDS011;26582;47.524;19.012;2023-09-30T11:29:04;16.52;;;9.70;;
40863;SDS011;26582;47.524;19.012;2023-09-30T11:31:32;15.32;;;9.70;;
40863;SDS011;26582;47.524;19.012;2023-09-30T11:34:00;17.27;;;9.55;;
40863;SDS011;26582;47.524;19.012;2023-09-30T11:36:29;16.08;;;9.68;;
40863;SDS011;26582;47.524;19.012;2023-09-30T11:38:56;16.00;;;10.18;;
40863;SDS011;26582;47.524;19.012;2023-09-30T11:41:31;15.48;;;10.00;;
40863;SDS011;26582;47.524;19.012;2023-09-30T11:44:00;15.27;;;9.77;;
40863;SDS011;26582;47.524;19.012;2023-09-30T11:46:30;14.10;;;9.25;;
40863;SDS011;26582;47.524;19.012;2023-09-30T11:48:59;14.85;;;9.73;;
40863;SDS011;26582;47.524;19.012;2023-09-30T11:51:42;14.27;;;9.73;;
40863;SDS011;26582;47.524;19.012;2023-09-30T11:54:11;20.55;;;9.80;;
40863;SDS011;26582;47.524;19.012;2023-09-30T11:56:41;13.10;;;9.13;;
40863;SDS011;26582;47.524;19.012;2023-09-30T11:59:08;20.55;;;10.20;;
40863;SDS011;26582;47.524;19.012;2023-09-30T12:01:35;16.77;;;10.30;;
40863;SDS011;26582;47.524;19.012;2023-09-30T12:04:04;14.68;;;9.70;;
40863;SDS011;26582;47.524;19.012;2023-09-30T12:06:31;13.98;;;9.98;;
40863;SDS011;26582;47.524;19.012;2023-09-30T12:08:59;15.20;;;10.30;;
40863;SDS011;26582;47.524;19.012;2023-09-30T12:11:28;21.40;;;10.73;;
40863;SDS011;26582;47.524;19.012;2023-09-30T12:13:54;22.23;;;11.43;;
40863;SDS011;26582;47.524;19.012;2023-09-30T12:16:21;20.65;;;10.63;;
40863;SDS011;26582;47.524;19.012;2023-09-30T12:18:49;17.25;;;10.23;;
40863;SDS011;26582;47.524;19.012;2023-09-30T12:21:17;18.42;;;11.18;;
40863;SDS011;26582;47.524;19.012;2023-09-30T12:23:45;16.65;;;10.27;;
40863;SDS011;26582;47.524;19.012;2023-09-30T12:26:13;19.23;;;11.10;;
40863;SDS011;26582;47.524;19.012;2023-09-30T12:28:42;19.88;;;10.50;;
40863;SDS011;26582;47.524;19.012;2023-09-30T12:31:09;19.63;;;11.75;;
40863;SDS011;26582;47.524;19.012;2023-09-30T12:33:36;18.17;;;11.35;;
40863;SDS011;26582;47.524;19.012;2023-09-30T12:36:03;20.80;;;12.65;;
40863;SDS011;26582;47.524;19.012;2023-09-30T12:38:31;23.25;;;12.75;;
40863;SDS011;26582;47.524;19.012;2023-09-30T12:40:58;21.40;;;11.60;;
40863;SDS011;26582;47.524;19.012;2023-09-30T12:43:25;17.88;;;11.15;;
40863;SDS011;26582;47.524;19.012;2023-09-30T12:45:52;19.88;;;12.68;;
40863;SDS011;26582;47.524;19.012;2023-09-30T12:48:19;16.45;;;11.20;;
40863;SDS011;26582;47.524;19.012;2023-09-30T12:50:46;17.23;;;11.40;;
40863;SDS011;26582;47.524;19.012;2023-09-30T12:53:13;22.95;;;10.77;;
40863;SDS011;26582;47.524;19.012;2023-09-30T12:55:41;19.13;;;11.32;;
40863;SDS011;26582;47.524;19.012;2023-09-30T12:58:08;18.15;;;11.32;;
40863;SDS011;26582;47.524;19.012;2023-09-30T13:00:35;15.80;;;10.25;;
40863;SDS011;26582;47.524;19.012;2023-09-30T13:03:02;18.70;;;10.85;;
40863;SDS011;26582;47.524;19.012;2023-09-30T13:05:30;18.13;;;11.13;;
40863;SDS011;26582;47.524;19.012;2023-09-30T13:07:57;19.48;;;11.50;;
40863;SDS011;26582;47.524;19.012;2023-09-30T13:10:25;19.23;;;10.77;;
40863;SDS011;26582;47.524;19.012;2023-09-30T13:12:53;16.08;;;10.77;;
40863;SDS011;26582;47.524;19.012;2023-09-30T13:15:20;19.42;;;10.77;;
40863;SDS011;26582;47.524;19.012;2023-09-30T13:17:49;19.58;;;11.38;;
40863;SDS011;26582;47.524;19.012;2023-09-30T13:20:16;17.08;;;10.70;;
40863;SDS011;26582;47.524;19.012;2023-09-30T13:22:43;17.27;;;10.90;;
40863;SDS011;26582;47.524;19.012;2023-09-30T13:25:10;18.90;;;10.88;;
40863;SDS011;26582;47.524;19.012;2023-09-30T13:27:38;15.55;;;10.05;;
40863;SDS011;26582;47.524;19.012;2023-09-30T13:30:07;17.13;;;11.20;;
40863;SDS011;26582;47.524;19.012;2023-09-30T13:32:35;20.05;;;11.85;;
40863;SDS011;26582;47.524;19.012;2023-09-30T13:35:02;18.63;;;10.82;;
40863;SDS011;26582;47.524;19.012;2023-09-30T13:37:30;18.80;;;11.10;;
40863;SDS011;26582;47.524;19.012;2023-09-30T13:39:58;17.33;;;10.02;;
40863;SDS011;26582;47.524;19.012;2023-09-30T13:42:25;18.27;;;9.55;;
40863;SDS011;26582;47.524;19.012;2023-09-30T13:44:52;16.33;;;10.35;;
40863;SDS011;26582;47.524;19.012;2023-09-30T13:47:20;19.85;;;11.02;;
40863;SDS011;26582;47.524;19.012;2023-09-30T13:49:47;19.70;;;11.02;;
40863;SDS011;26582;47.524;19.012;2023-09-30T13:52:14;15.50;;;10.70;;
40863;SDS011;26582;47.524;19.012;2023-09-30T13:54:40;18.05;;;11.63;;
40863;SDS011;26582;47.524;19.012;2023-09-30T13:57:07;23.05;;;12.45;;
40863;SDS011;26582;47.524;19.012;2023-09-30T13:59:34;25.60;;;14.95;;
40863;SDS011;26582;47.524;19.012;2023-09-30T14:02:01;22.17;;;11.93;;
40863;SDS011;26582;47.524;19.012;2023-09-30T14:04:30;15.20;;;10.85;;
40863;SDS011;26582;47.524;19.012;2023-09-30T14:06:57;18.85;;;11.30;;
40863;SDS011;26582;47.524;19.012;2023-09-30T14:09:25;18.02;;;10.80;;
40863;SDS011;26582;47.524;19.012;2023-09-30T14:11:53;16.40;;;10.73;;
40863;SDS011;26582;47.524;19.012;2023-09-30T14:14:19;17.73;;;10.55;;
40863;SDS011;26582;47.524;19.012;2023-09-30T14:16:46;17.73;;;11.38;;
40863;SDS011;26582;47.524;19.012;2023-09-30T14:19:13;15.63;;;10.30;;
40863;SDS011;26582;47.524;19.012;2023-09-30T14:21:41;16.20;;;10.30;;
40863;SDS011;26582;47.524;19.012;2023-09-30T14:24:08;18.70;;;11.57;;
40863;SDS011;26582;47.524;19.012;2023-09-30T14:26:35;16.58;;;10.82;;
40863;SDS011;26582;47.524;19.012;2023-09-30T14:29:01;16.52;;;10.75;;
40863;SDS011;26582;47.524;19.012;2023-09-30T14:31:28;18.02;;;11.10;;
40863;SDS011;26582;47.524;19.012;2023-09-30T14:33:55;17.33;;;10.98;;
40863;SDS011;26582;47.524;19.012;2023-09-30T14:36:22;17.20;;;10.57;;
40863;SDS011;26582;47.524;19.012;2023-09-30T14:38:50;16.00;;;10.80;;
40863;SDS011;26582;47.524;19.012;2023-09-30T14:41:17;17.83;;;11.55;;
40863;SDS011;26582;47.524;19.012;2023-09-30T14:43:44;17.83;;;10.90;;
40863;SDS011;26582;47.524;19.012;2023-09-30T14:46:11;19.15;;;11.73;;
40863;SDS011;26582;47.524;19.012;2023-09-30T14:48:37;17.00;;;11.00;;
40863;SDS011;26582;47.524;19.012;2023-09-30T14:51:04;17.70;;;11.07;;
40863;SDS011;26582;47.524;19.012;2023-09-30T14:53:33;17.73;;;11.15;;